createdAt,value
2018-12-11T00:04:36.345Z,100647.55
2018-12-11T00:09:53.805Z,100650.84
2018-12-11T00:15:11.380Z,100643.38
2018-12-11T00:20:28.896Z,100646.48
2018-12-11T00:25:46.365Z,100646.13
2018-12-11T00:31:03.874Z,100638.77
2018-12-11T00:36:21.367Z,100651.56
2018-12-11T00:41:38.835Z,100645.88
2018-12-11T00:46:56.321Z,100641.67
2018-12-11T00:52:13.806Z,100631.02
2018-12-11T00:57:31.357Z,100621.84
2018-12-11T01:02:48.826Z,100628.00
2018-12-11T01:08:06.332Z,100638.29
2018-12-11T01:13:23.814Z,100633.72
2018-12-11T01:18:41.289Z,100637.58
2018-12-11T01:23:58.752Z,100643.03
2018-12-11T01:29:16.210Z,100639.40
2018-12-11T01:34:33.677Z,100641.39
2018-12-11T01:39:51.133Z,100647.19
2018-12-11T01:45:08.701Z,100651.13
2018-12-11T01:50:26.178Z,100651.95
2018-12-11T01:55:44.042Z,100649.12
2018-12-11T02:01:01.558Z,100647.11
2018-12-11T02:06:19.032Z,100641.66
2018-12-11T02:11:36.505Z,100642.30
2018-12-11T02:16:53.971Z,100647.39
2018-12-11T02:22:11.440Z,100648.02
2018-12-11T02:27:28.909Z,100648.14
2018-12-11T02:32:46.370Z,100647.52
2018-12-11T02:38:03.866Z,100643.89
2018-12-11T02:43:21.358Z,100638.44
2018-12-11T02:48:38.821Z,100638.48
2018-12-11T02:53:56.316Z,100635.38
2018-12-11T02:59:13.776Z,100639.23
2018-12-11T03:04:31.282Z,100640.34
2018-12-11T03:09:48.761Z,100643.33
2018-12-11T03:15:06.403Z,100638.01
2018-12-11T03:20:23.941Z,100636.57
2018-12-11T03:25:41.419Z,100637.32
2018-12-11T03:30:59.024Z,100627.44
2018-12-11T03:36:16.508Z,100632.27
2018-12-11T03:41:34.285Z,100621.42
2018-12-11T03:46:51.945Z,100619.56
2018-12-11T03:52:09.438Z,100623.78
2018-12-11T03:57:27.035Z,100622.14
2018-12-11T04:02:44.542Z,100639.67
2018-12-11T04:08:02.007Z,100631.02
2018-12-11T04:13:19.515Z,100643.05
2018-12-11T04:18:36.989Z,100635.31
2018-12-11T04:23:54.699Z,100621.44
2018-12-11T04:29:12.165Z,100618.94
2018-12-11T04:34:29.621Z,100631.09
2018-12-11T04:39:47.097Z,100628.83
2018-12-11T04:45:05.329Z,100627.64
2018-12-11T04:50:22.797Z,100638.33
2018-12-11T04:55:40.266Z,100633.52
2018-12-11T05:00:57.829Z,100639.05
2018-12-11T05:06:15.296Z,100641.47
2018-12-11T05:11:32.770Z,100643.58
2018-12-11T05:16:50.243Z,100633.59
2018-12-11T05:22:07.724Z,100628.75
2018-12-11T05:27:25.184Z,100620.48
2018-12-11T05:32:42.646Z,100631.66
2018-12-11T05:38:00.119Z,100618.94
2018-12-11T05:43:17.677Z,100623.98
2018-12-11T05:48:35.155Z,100625.77
2018-12-11T05:53:52.616Z,100622.55
2018-12-11T05:59:10.160Z,100625.37
2018-12-11T06:04:27.646Z,100635.11
2018-12-11T06:09:45.111Z,100637.58
2018-12-11T06:15:02.678Z,100638.41
2018-12-11T06:20:20.163Z,100633.52
2018-12-11T06:25:37.634Z,100632.13
2018-12-11T06:30:55.112Z,100627.16
2018-12-11T06:36:12.580Z,100635.59
2018-12-11T06:41:30.057Z,100633.39
2018-12-11T06:46:47.530Z,100632.09
2018-12-11T06:52:05.023Z,100628.13
2018-12-11T06:57:22.492Z,100627.92
2018-12-11T07:02:39.974Z,100627.77
2018-12-11T07:07:58.391Z,100629.63
2018-12-11T07:13:15.876Z,100630.95
2018-12-11T07:18:33.342Z,100626.45
2018-12-11T07:23:50.809Z,100630.82
2018-12-11T07:29:08.355Z,100622.24
2018-12-11T07:34:25.860Z,100636.46
2018-12-11T07:39:43.351Z,100646.08
2018-12-11T07:45:00.823Z,100645.17
2018-12-11T07:50:18.300Z,100658.08
2018-12-11T07:55:35.761Z,100645.72
2018-12-11T08:00:53.228Z,100652.16
2018-12-11T08:06:10.714Z,100661.90
2018-12-11T08:11:28.188Z,100666.52
2018-12-11T08:16:45.645Z,100663.36
2018-12-11T08:22:03.120Z,100663.77
2018-12-11T08:27:20.577Z,100666.45
2018-12-11T08:32:38.070Z,100666.05
2018-12-11T08:37:55.536Z,100666.45
2018-12-11T08:43:13.115Z,100666.88
2018-12-11T08:48:30.572Z,100666.45
2018-12-11T08:53:48.032Z,100664.30
2018-12-11T08:59:06.741Z,100668.58
2018-12-11T09:04:24.503Z,100677.44
2018-12-11T09:09:41.959Z,100678.89
2018-12-11T09:14:59.426Z,100676.72
2018-12-11T09:20:16.952Z,100670.87
2018-12-11T09:25:34.421Z,100678.33
2018-12-11T09:30:51.879Z,100682.14
2018-12-11T09:36:09.358Z,100683.02
2018-12-11T09:41:27.119Z,100690.63
2018-12-11T09:46:44.683Z,100690.53
2018-12-11T09:52:02.150Z,100695.56
2018-12-11T09:57:19.609Z,100698.73
2018-12-11T10:02:37.074Z,100691.66
2018-12-11T10:07:54.546Z,100686.97
2018-12-11T10:13:12.014Z,100698.05
2018-12-11T10:18:29.510Z,100696.57
2018-12-11T10:23:47.302Z,100694.77
2018-12-11T10:29:04.773Z,100688.66
2018-12-11T10:34:22.253Z,100693.04
2018-12-11T10:39:39.730Z,100693.75
2018-12-11T10:44:57.180Z,100692.06
2018-12-11T10:50:14.660Z,100693.77
2018-12-11T10:55:32.324Z,100692.49
2018-12-11T11:00:55.478Z,100695.28
2018-12-11T11:06:13.008Z,100689.58
2018-12-11T11:11:30.479Z,100690.59
2018-12-11T11:16:48.055Z,100685.13
2018-12-11T11:22:05.511Z,100686.88
2018-12-11T11:27:23.114Z,100684.47
2018-12-11T11:32:40.590Z,100689.34
2018-12-11T11:37:58.050Z,100682.67
2018-12-11T11:43:15.553Z,100676.92
2018-12-11T11:48:33.044Z,100672.72
2018-12-11T11:53:50.496Z,100670.25
2018-12-11T11:59:09.221Z,100664.81
2018-12-11T12:04:26.819Z,100660.81
2018-12-11T12:09:44.348Z,100657.31
2018-12-11T12:15:02.083Z,100659.33
2018-12-11T12:20:19.970Z,100654.76
2018-12-11T12:25:38.660Z,100667.97
2018-12-11T12:30:56.747Z,100661.66
2018-12-11T12:36:14.588Z,100667.92
2018-12-11T12:41:33.477Z,100672.40
2018-12-11T12:46:50.983Z,100675.83
2018-12-11T12:52:08.600Z,100667.58
2018-12-11T12:57:26.184Z,100662.66
2018-12-11T13:02:49.689Z,100661.38
2018-12-11T13:08:03.254Z,100661.91
2018-12-11T13:13:20.906Z,100666.25
2018-12-11T13:18:38.692Z,100664.97
2018-12-11T13:23:56.835Z,100659.42
2018-12-11T13:29:14.401Z,100673.98
2018-12-11T13:34:34.167Z,100671.03
2018-12-11T13:39:53.276Z,100674.28
2018-12-11T13:45:12.362Z,100667.56
2018-12-11T13:50:33.788Z,100659.17
2018-12-11T13:55:54.398Z,100658.87
2018-12-11T14:01:14.914Z,100661.12
2018-12-11T14:06:36.154Z,100657.13
2018-12-11T14:18:12.618Z,100655.77
2018-12-11T14:23:30.078Z,100652.83
2018-12-11T14:28:47.553Z,100661.59
2018-12-11T14:34:05.016Z,100663.02
2018-12-11T14:39:22.494Z,100657.36
2018-12-11T14:44:39.966Z,100655.87
2018-12-11T14:49:57.425Z,100659.68
2018-12-11T14:55:14.913Z,100663.98
2018-12-11T15:00:32.385Z,100661.34
2018-12-11T15:05:49.854Z,100673.72
2018-12-11T15:11:07.317Z,100667.88
2018-12-11T15:16:24.969Z,100665.73
2018-12-11T15:21:42.437Z,100667.49
2018-12-11T15:26:59.916Z,100671.03
2018-12-11T15:32:17.377Z,100667.92
2018-12-11T15:37:34.842Z,100666.69
2018-12-11T15:42:52.448Z,100667.73
2018-12-11T15:48:09.915Z,100665.66
2018-12-11T15:53:27.426Z,100665.00
2018-12-11T15:58:44.892Z,100660.09
2018-12-11T16:04:02.363Z,100667.15
2018-12-11T16:09:21.810Z,100666.16
2018-12-11T16:14:39.276Z,100670.25
2018-12-11T16:19:56.736Z,100669.49
2018-12-11T16:25:14.300Z,100676.52
2018-12-11T16:30:31.787Z,100670.91
2018-12-11T16:35:49.252Z,100675.62
2018-12-11T16:41:06.704Z,100680.03
2018-12-11T16:46:24.166Z,100697.20
2018-12-11T16:51:41.687Z,100694.16
2018-12-11T16:56:59.158Z,100696.14
2018-12-11T17:02:16.679Z,100697.03
2018-12-11T17:07:34.143Z,100697.45
2018-12-11T17:12:51.606Z,100701.47
2018-12-11T17:18:09.068Z,100702.72
2018-12-11T17:23:26.528Z,100705.91
2018-12-11T17:28:44.025Z,100707.17
2018-12-11T17:34:01.482Z,100707.65
2018-12-11T17:39:18.953Z,100712.84
2018-12-11T17:44:36.644Z,100721.89
2018-12-11T17:49:54.112Z,100721.22
2018-12-11T17:55:11.622Z,100722.95
2018-12-11T18:00:29.094Z,100723.16
2018-12-11T18:05:46.553Z,100727.64
2018-12-11T18:11:04.036Z,100729.88
2018-12-11T18:16:21.509Z,100738.54
2018-12-11T18:21:38.982Z,100735.59
2018-12-11T18:26:56.452Z,100740.56
2018-12-11T18:32:14.009Z,100748.72
2018-12-11T18:37:31.581Z,100746.17
2018-12-11T18:42:49.090Z,100739.38
2018-12-11T18:48:06.579Z,100743.66
2018-12-11T18:53:24.060Z,100741.98
2018-12-11T18:58:41.531Z,100751.12
2018-12-11T19:03:58.997Z,100746.98
2018-12-11T19:09:16.463Z,100744.56
2018-12-11T19:14:33.937Z,100749.42
2018-12-11T19:19:51.395Z,100758.51
2018-12-11T19:25:12.366Z,100753.92
2018-12-11T19:30:29.835Z,100752.52
2018-12-11T19:35:47.302Z,100741.16
2018-12-11T19:41:04.835Z,100743.39
2018-12-11T19:46:22.311Z,100745.95
2018-12-11T19:51:39.783Z,100739.83
2018-12-11T19:56:57.241Z,100735.15
2018-12-11T20:02:14.747Z,100735.90
2018-12-11T20:07:32.254Z,100740.72
2018-12-11T20:12:49.714Z,100742.59
2018-12-11T20:18:12.707Z,100742.57
2018-12-11T20:23:26.815Z,100750.25
2018-12-11T20:28:44.278Z,100754.91
2018-12-11T20:34:01.772Z,100754.73
2018-12-11T20:39:19.236Z,100762.02
2018-12-11T20:44:36.703Z,100761.84
2018-12-11T20:49:54.167Z,100753.95
2018-12-11T20:55:11.634Z,100759.41
2018-12-11T21:00:31.097Z,100757.55
2018-12-11T21:05:48.557Z,100760.39
2018-12-11T21:11:06.025Z,100761.38
2018-12-11T21:16:23.485Z,100762.12
2018-12-11T21:21:41.137Z,100766.95
2018-12-11T21:26:58.604Z,100760.92
2018-12-11T21:32:16.068Z,100769.09
2018-12-11T21:37:33.546Z,100771.45
2018-12-11T21:42:51.008Z,100774.09
2018-12-11T21:48:08.969Z,100773.62
2018-12-11T21:53:26.436Z,100772.04
2018-12-11T21:58:43.904Z,100774.34
2018-12-11T22:04:01.371Z,100765.91
2018-12-11T22:09:18.837Z,100752.66
2018-12-11T22:14:36.289Z,100759.83
2018-12-11T22:19:53.767Z,100766.23
2018-12-11T22:25:11.287Z,100763.02
2018-12-11T22:30:28.750Z,100763.87
2018-12-11T22:35:46.220Z,100776.84
2018-12-11T22:41:03.685Z,100776.44
2018-12-11T22:46:21.149Z,100776.48
2018-12-11T22:51:39.225Z,100780.55
2018-12-11T22:56:56.701Z,100790.16
2018-12-11T23:02:14.169Z,100786.77
2018-12-11T23:07:31.738Z,100792.40
2018-12-11T23:12:49.195Z,100787.20
2018-12-11T23:18:06.665Z,100793.02
2018-12-11T23:23:24.125Z,100790.78
2018-12-11T23:28:41.592Z,100794.18
2018-12-11T23:33:59.057Z,100794.18
2018-12-11T23:39:16.532Z,100788.73
2018-12-11T23:44:33.998Z,100787.30
2018-12-11T23:49:51.464Z,100784.80
2018-12-11T23:55:08.925Z,100782.55
